createdAt,value
2022-11-10T00:00:04.052Z,9.48
2022-11-10T00:02:50.150Z,9.47
2022-11-10T00:05:39.913Z,9.44
2022-11-10T00:08:26.071Z,9.42
2022-11-10T00:11:12.785Z,9.39
2022-11-10T00:14:17.936Z,9.38
2022-11-10T00:17:05.323Z,9.34
2022-11-10T00:19:51.719Z,9.33
2022-11-10T00:22:40.753Z,9.32
2022-11-10T00:25:28.272Z,9.31
2022-11-10T00:28:14.520Z,9.31
2022-11-10T00:31:07.039Z,9.28
2022-11-10T00:33:53.394Z,9.26
2022-11-10T00:36:40.047Z,9.23
2022-11-10T00:39:27.948Z,9.22
2022-11-10T00:42:14.116Z,9.21
2022-11-10T00:45:00.804Z,9.20
2022-11-10T00:47:47.674Z,9.18
2022-11-10T00:50:34.428Z,9.15
2022-11-10T00:53:21.213Z,9.12
2022-11-10T00:56:09.254Z,9.10
2022-11-10T00:58:55.769Z,9.09
2022-11-10T01:01:42.460Z,9.08
2022-11-10T01:04:28.904Z,9.08
2022-11-10T01:07:15.488Z,9.06
2022-11-10T01:10:01.943Z,9.05
2022-11-10T01:12:49.837Z,9.03
2022-11-10T01:15:40.169Z,9.01
2022-11-10T01:18:26.682Z,8.99
2022-11-10T01:21:13.153Z,8.99
2022-11-10T01:23:59.782Z,9.01
2022-11-10T01:26:46.125Z,9.03
2022-11-10T01:29:34.061Z,9.05
2022-11-10T01:32:20.537Z,9.06
2022-11-10T01:35:08.588Z,9.06
2022-11-10T01:37:55.400Z,9.06
2022-11-10T01:40:41.985Z,9.06
2022-11-10T01:43:29.528Z,9.05
2022-11-10T01:46:17.815Z,9.04
2022-11-10T01:49:05.297Z,9.04
2022-11-10T01:51:55.779Z,9.03
2022-11-10T01:54:45.507Z,9.00
2022-11-10T01:57:32.519Z,8.98
2022-11-10T02:00:18.987Z,8.94
2022-11-10T02:03:13.249Z,8.95
2022-11-10T02:05:59.941Z,8.93
2022-11-10T02:08:47.993Z,8.92
2022-11-10T02:11:35.088Z,8.90
2022-11-10T02:14:21.613Z,8.86
2022-11-10T02:17:08.061Z,8.85
2022-11-10T02:19:59.981Z,8.85
2022-11-10T02:22:47.884Z,8.84
2022-11-10T02:25:35.371Z,8.84
2022-11-10T02:28:21.620Z,8.81
2022-11-10T02:31:09.313Z,8.80
2022-11-10T02:33:55.273Z,8.81
2022-11-10T02:36:42.076Z,8.78
2022-11-10T02:39:29.816Z,8.78
2022-11-10T02:42:16.241Z,8.75
2022-11-10T02:45:02.561Z,8.75
2022-11-10T02:47:48.900Z,8.73
2022-11-10T02:50:35.443Z,8.71
2022-11-10T02:53:22.169Z,8.68
2022-11-10T02:56:10.548Z,8.65
2022-11-10T02:58:56.790Z,8.60
2022-11-10T03:01:43.350Z,8.57
2022-11-10T03:04:29.515Z,8.55
2022-11-10T03:07:15.875Z,8.55
2022-11-10T03:10:02.764Z,8.53
2022-11-10T03:12:50.559Z,8.53
2022-11-10T03:15:37.076Z,8.53
2022-11-10T03:18:23.403Z,8.52
2022-11-10T03:21:09.907Z,8.52
2022-11-10T03:23:56.530Z,8.50
2022-11-10T03:26:42.847Z,8.48
2022-11-10T03:29:30.239Z,8.46
2022-11-10T03:32:16.540Z,8.43
2022-11-10T03:35:03.046Z,8.39
2022-11-10T03:37:49.378Z,8.38
2022-11-10T03:40:56.978Z,8.37
2022-11-10T03:43:42.403Z,8.36
2022-11-10T03:46:30.128Z,8.34
2022-11-10T03:49:16.286Z,8.32
2022-11-10T03:52:02.769Z,8.30
2022-11-10T03:54:49.488Z,8.29
2022-11-10T03:57:35.875Z,8.29
2022-11-10T04:00:22.735Z,8.26
2022-11-10T04:03:10.719Z,8.24
2022-11-10T04:06:14.450Z,8.22
2022-11-10T04:09:00.980Z,8.20
2022-11-10T04:12:05.122Z,8.21
2022-11-10T04:15:09.399Z,8.21
2022-11-10T04:18:15.733Z,8.21
2022-11-10T04:21:04.716Z,8.22
2022-11-10T04:23:51.062Z,8.20
2022-11-10T04:26:38.896Z,8.18
2022-11-10T04:29:25.354Z,8.18
2022-11-10T04:32:11.884Z,8.16
2022-11-10T04:34:58.406Z,8.13
2022-11-10T04:37:47.575Z,8.11
2022-11-10T04:40:33.778Z,8.05
2022-11-10T04:43:20.205Z,8.02
2022-11-10T04:46:08.905Z,7.98
2022-11-10T04:48:56.524Z,7.94
2022-11-10T04:51:42.862Z,7.92
2022-11-10T04:54:30.933Z,7.89
2022-11-10T04:57:17.037Z,7.86
2022-11-10T05:00:04.964Z,7.83
2022-11-10T05:02:51.737Z,7.80
2022-11-10T05:05:38.283Z,7.79
2022-11-10T05:08:24.649Z,7.76
2022-11-10T05:11:13.276Z,7.72
2022-11-10T05:13:59.446Z,7.68
2022-11-10T05:16:45.767Z,7.66
2022-11-10T05:19:32.150Z,7.62
2022-11-10T05:22:18.400Z,7.59
2022-11-10T05:25:04.716Z,7.56
2022-11-10T05:27:52.348Z,7.51
2022-11-10T05:30:39.194Z,7.44
2022-11-10T05:33:25.745Z,7.40
2022-11-10T05:36:12.182Z,7.36
2022-11-10T05:38:58.741Z,7.30
2022-11-10T05:41:45.192Z,7.28
2022-11-10T05:44:34.057Z,7.25
2022-11-10T05:47:20.785Z,7.22
2022-11-10T05:50:09.229Z,7.20
2022-11-10T05:52:56.338Z,7.18
2022-11-10T05:55:42.719Z,7.17
2022-11-10T05:58:29.330Z,7.16
2022-11-10T06:01:17.934Z,7.15
2022-11-10T06:04:04.737Z,7.13
2022-11-10T06:06:51.245Z,7.11
2022-11-10T06:09:38.042Z,7.09
2022-11-10T06:12:25.075Z,7.09
2022-11-10T06:15:12.444Z,7.05
2022-11-10T06:18:00.099Z,7.04
2022-11-10T06:20:47.547Z,7.02
2022-11-10T06:23:33.949Z,7.00
2022-11-10T06:26:20.074Z,6.98
2022-11-10T06:29:06.498Z,6.96
2022-11-10T06:31:53.089Z,6.93
2022-11-10T06:34:40.608Z,6.92
2022-11-10T06:37:26.990Z,6.90
2022-11-10T06:40:14.707Z,6.86
2022-11-10T06:43:01.552Z,6.85
2022-11-10T06:45:47.994Z,6.81
2022-11-10T06:48:34.699Z,6.80
2022-11-10T06:51:22.244Z,6.81
2022-11-10T06:54:08.742Z,6.79
2022-11-10T06:56:55.249Z,6.77
2022-11-10T06:59:41.811Z,6.76
2022-11-10T07:02:28.079Z,6.74
2022-11-10T07:05:15.630Z,6.77
2022-11-10T07:08:09.106Z,6.79
2022-11-10T07:10:56.518Z,6.81
2022-11-10T07:13:43.148Z,6.83
2022-11-10T07:16:29.710Z,6.84
2022-11-10T07:19:15.995Z,6.88
2022-11-10T07:22:06.637Z,6.90
2022-11-10T07:24:57.713Z,6.97
2022-11-10T07:27:43.827Z,7.00
2022-11-10T07:30:32.129Z,7.04
2022-11-10T07:33:18.453Z,7.07
2022-11-10T07:36:07.057Z,7.10
2022-11-10T07:38:58.343Z,7.15
2022-11-10T07:41:51.253Z,7.18
2022-11-10T07:44:38.878Z,7.23
2022-11-10T07:47:26.204Z,7.27
2022-11-10T07:50:12.586Z,7.33
2022-11-10T07:53:06.896Z,7.42
2022-11-10T07:55:53.302Z,7.47
2022-11-10T07:58:41.160Z,7.56
2022-11-10T08:01:27.976Z,7.58
2022-11-10T08:04:14.264Z,7.64
2022-11-10T08:07:00.716Z,7.68
2022-11-10T08:09:47.309Z,7.75
2022-11-10T08:12:33.955Z,7.80
2022-11-10T08:15:21.808Z,7.85
2022-11-10T08:18:14.164Z,7.98
2022-11-10T08:21:01.685Z,8.12
2022-11-10T08:23:48.170Z,8.29
2022-11-10T08:26:34.551Z,8.47
2022-11-10T08:29:20.696Z,8.59
2022-11-10T08:32:08.692Z,8.75
2022-11-10T08:34:54.961Z,8.88
2022-11-10T08:37:41.480Z,8.98
2022-11-10T08:40:28.796Z,9.06
2022-11-10T08:43:16.292Z,9.11
2022-11-10T08:46:02.712Z,9.14
2022-11-10T08:48:50.251Z,9.15
2022-11-10T08:51:39.265Z,9.17
2022-11-10T08:54:25.950Z,9.19
2022-11-10T08:57:12.347Z,9.22
2022-11-10T08:59:59.001Z,9.21
2022-11-10T09:02:45.454Z,9.28
2022-11-10T09:05:34.015Z,9.49
2022-11-10T09:08:20.473Z,9.70
2022-11-10T09:11:07.063Z,9.93
2022-11-10T09:13:53.211Z,10.18
2022-11-10T09:16:39.861Z,10.45
2022-11-10T09:19:26.165Z,10.72
2022-11-10T09:22:14.164Z,10.94
2022-11-10T09:25:00.753Z,11.08
2022-11-10T09:27:47.282Z,11.23
2022-11-10T09:30:33.919Z,11.42
2022-11-10T09:33:21.419Z,11.63
2022-11-10T09:36:08.583Z,11.80
2022-11-10T09:38:56.348Z,12.00
2022-11-10T09:41:45.541Z,12.16
2022-11-10T09:44:37.104Z,12.31
2022-11-10T09:47:55.725Z,12.44
2022-11-10T09:50:41.222Z,12.58
2022-11-10T09:53:33.752Z,12.70
2022-11-10T09:56:32.088Z,12.81
2022-11-10T09:59:26.702Z,12.93
2022-11-10T10:02:29.642Z,13.04
2022-11-10T10:05:37.675Z,13.17
2022-11-10T10:08:32.917Z,13.22
2022-11-10T10:11:34.366Z,13.30
2022-11-10T10:14:41.819Z,13.39
2022-11-10T10:17:40.774Z,13.48
2022-11-10T10:20:34.318Z,13.53
2022-11-10T10:23:46.905Z,13.58
2022-11-10T10:26:39.157Z,13.63
2022-11-10T10:29:33.122Z,13.63
2022-11-10T10:32:23.345Z,13.65
2022-11-10T10:35:14.398Z,13.70
2022-11-10T10:38:03.115Z,13.76
2022-11-10T10:40:51.785Z,13.88
2022-11-10T10:43:41.384Z,13.98
2022-11-10T10:46:32.800Z,14.03
2022-11-10T10:49:29.716Z,14.00
2022-11-10T10:52:24.813Z,13.91
2022-11-10T10:55:14.465Z,13.84
2022-11-10T10:58:02.664Z,13.84
2022-11-10T11:00:52.706Z,13.79
2022-11-10T11:03:42.562Z,13.66
2022-11-10T11:06:30.349Z,13.67
2022-11-10T11:09:21.068Z,13.70
2022-11-10T11:12:09.803Z,13.70
2022-11-10T11:15:14.345Z,13.79
2022-11-10T11:18:04.617Z,13.96
2022-11-10T11:21:01.009Z,14.05
2022-11-10T11:24:17.747Z,14.13
2022-11-10T11:27:07.133Z,14.19
2022-11-10T11:30:11.027Z,14.26
2022-11-10T11:33:14.746Z,14.33
2022-11-10T11:36:09.072Z,14.40
2022-11-10T11:39:04.301Z,14.52
2022-11-10T11:41:59.175Z,14.49
2022-11-10T11:44:57.895Z,14.55
2022-11-10T11:48:00.766Z,14.61
2022-11-10T11:50:55.264Z,14.67
2022-11-10T11:53:53.560Z,14.78
2022-11-10T11:56:43.600Z,14.80
2022-11-10T11:59:44.203Z,14.69
2022-11-10T12:02:58.080Z,14.59
2022-11-10T12:05:53.637Z,14.52
2022-11-10T12:08:51.510Z,14.59
2022-11-10T12:11:52.461Z,14.72
2022-11-10T12:14:53.255Z,14.86
2022-11-10T12:17:49.997Z,14.96
2022-11-10T12:20:48.658Z,15.10
2022-11-10T12:23:50.060Z,15.23
2022-11-10T12:26:43.395Z,15.38
2022-11-10T12:29:35.691Z,15.51
2022-11-10T12:32:29.463Z,15.65
2022-11-10T12:35:21.333Z,15.73
2022-11-10T12:38:13.098Z,15.80
2022-11-10T12:41:11.012Z,15.88
2022-11-10T12:44:13.888Z,16.01
2022-11-10T12:47:04.154Z,16.16
2022-11-10T12:49:58.610Z,16.29
2022-11-10T12:52:51.251Z,16.49
2022-11-10T12:55:43.406Z,16.65
2022-11-10T12:58:31.674Z,16.58
2022-11-10T13:01:21.191Z,16.56
2022-11-10T13:04:08.152Z,16.51
2022-11-10T13:06:58.329Z,16.38
2022-11-10T13:09:45.688Z,16.20
2022-11-10T13:12:32.920Z,16.21
2022-11-10T13:16:02.044Z,16.20
2022-11-10T13:18:58.555Z,16.24
2022-11-10T13:22:09.988Z,16.33
2022-11-10T13:25:37.764Z,16.38
2022-11-10T13:29:03.012Z,16.37
2022-11-10T13:31:55.878Z,16.38
2022-11-10T13:34:45.194Z,16.41
2022-11-10T13:37:50.647Z,16.33
2022-11-10T13:40:41.089Z,16.24
2022-11-10T13:43:28.700Z,16.15
2022-11-10T13:46:15.565Z,16.00
2022-11-10T13:49:25.986Z,15.80
2022-11-10T13:52:17.146Z,15.61
2022-11-10T13:55:19.096Z,15.46
2022-11-10T13:58:10.097Z,15.29
2022-11-10T14:01:22.908Z,15.09
2022-11-10T14:04:09.661Z,15.00
2022-11-10T14:06:58.117Z,14.96
2022-11-10T14:09:49.208Z,14.92
2022-11-10T14:12:42.485Z,14.94
2022-11-10T14:15:38.579Z,14.96
2022-11-10T14:18:29.240Z,14.96
2022-11-10T14:21:23.415Z,14.93
2022-11-10T14:24:17.986Z,14.89
2022-11-10T14:27:13.150Z,14.85
2022-11-10T14:30:24.829Z,14.76
2022-11-10T14:33:13.998Z,14.70
2022-11-10T14:36:02.573Z,14.58
2022-11-10T14:38:49.662Z,14.46
2022-11-10T14:41:36.261Z,14.37
2022-11-10T14:44:25.895Z,14.31
2022-11-10T14:47:17.747Z,14.21
2022-11-10T14:50:20.211Z,14.12
2022-11-10T14:53:15.754Z,14.00
2022-11-10T14:56:05.196Z,13.89
2022-11-10T14:58:52.363Z,13.77
2022-11-10T15:01:44.649Z,13.67
2022-11-10T15:04:33.352Z,13.55
2022-11-10T15:07:20.725Z,13.47
2022-11-10T15:10:14.240Z,13.36
2022-11-10T15:13:03.941Z,13.23
2022-11-10T15:15:50.479Z,13.12
2022-11-10T15:18:38.512Z,13.01
2022-11-10T15:21:30.836Z,12.92
2022-11-10T15:24:19.142Z,12.82
2022-11-10T15:27:06.093Z,12.72
2022-11-10T15:29:53.621Z,12.63
2022-11-10T15:32:43.806Z,12.56
2022-11-10T15:35:32.535Z,12.48
2022-11-10T15:38:28.199Z,12.37
2022-11-10T15:41:17.404Z,12.27
2022-11-10T15:44:18.015Z,12.19
2022-11-10T15:47:04.780Z,12.10
2022-11-10T15:49:51.467Z,12.02
2022-11-10T15:52:39.999Z,11.93
2022-11-10T15:55:26.522Z,11.85
2022-11-10T15:58:15.170Z,11.78
2022-11-10T16:01:02.513Z,11.70
2022-11-10T16:03:48.778Z,11.63
2022-11-10T16:06:35.594Z,11.55
2022-11-10T16:09:24.055Z,11.47
2022-11-10T16:12:18.234Z,11.40
2022-11-10T16:15:05.184Z,11.32
2022-11-10T16:17:51.854Z,11.22
2022-11-10T16:20:38.396Z,11.13
2022-11-10T16:23:26.201Z,11.04
2022-11-10T16:26:17.335Z,10.98
2022-11-10T16:29:04.314Z,10.91
2022-11-10T16:31:51.656Z,10.84
2022-11-10T16:34:38.442Z,10.74
2022-11-10T16:37:24.971Z,10.67
2022-11-10T16:40:15.912Z,10.63
2022-11-10T16:43:03.937Z,10.54
2022-11-10T16:45:53.646Z,10.47
2022-11-10T16:48:40.275Z,10.40
2022-11-10T16:51:30.771Z,10.32
2022-11-10T16:54:17.327Z,10.24
2022-11-10T16:57:03.878Z,10.19
2022-11-10T16:59:51.636Z,10.12
2022-11-10T17:02:39.862Z,10.05
2022-11-10T17:05:26.305Z,9.99
2022-11-10T17:08:22.574Z,9.92
2022-11-10T17:11:10.238Z,9.85
2022-11-10T17:13:56.483Z,9.79
2022-11-10T17:16:46.634Z,9.72
2022-11-10T17:19:33.469Z,9.68
2022-11-10T17:22:21.936Z,9.66
2022-11-10T17:25:16.811Z,9.62
2022-11-10T17:28:03.372Z,9.60
2022-11-10T17:30:52.443Z,9.56
2022-11-10T17:33:40.687Z,9.53
2022-11-10T17:36:27.293Z,9.50
2022-11-10T17:39:15.596Z,9.47
2022-11-10T17:42:02.840Z,9.43
2022-11-10T17:44:48.989Z,9.39
2022-11-10T17:47:35.913Z,9.35
2022-11-10T17:50:24.840Z,9.32
2022-11-10T17:53:19.595Z,9.28
2022-11-10T17:56:06.421Z,9.26
2022-11-10T17:58:53.644Z,9.21
2022-11-10T18:01:40.257Z,9.16
2022-11-10T18:04:26.616Z,9.13
2022-11-10T18:07:14.240Z,9.11
2022-11-10T18:10:00.787Z,9.06
2022-11-10T18:12:47.408Z,9.04
2022-11-10T18:15:33.765Z,9.01
2022-11-10T18:18:19.950Z,8.98
2022-11-10T18:21:07.497Z,8.94
2022-11-10T18:23:54.889Z,8.91
2022-11-10T18:26:41.298Z,8.89
2022-11-10T18:29:27.701Z,8.86
2022-11-10T18:32:14.310Z,8.83
2022-11-10T18:35:00.500Z,8.80
2022-11-10T18:37:47.199Z,8.76
2022-11-10T18:40:35.093Z,8.75
2022-11-10T18:43:21.634Z,8.73
2022-11-10T18:46:08.419Z,8.72
2022-11-10T18:48:54.804Z,8.71
2022-11-10T18:51:41.660Z,8.69
2022-11-10T18:54:28.801Z,8.65
2022-11-10T18:57:16.713Z,8.65
2022-11-10T19:00:04.933Z,8.63
2022-11-10T19:02:51.455Z,8.61
2022-11-10T19:05:38.641Z,8.59
2022-11-10T19:08:25.858Z,8.57
2022-11-10T19:11:14.668Z,8.54
2022-11-10T19:14:02.592Z,8.53
2022-11-10T19:16:49.000Z,8.50
2022-11-10T19:19:35.487Z,8.47
2022-11-10T19:22:22.195Z,8.42
2022-11-10T19:25:09.559Z,8.38
2022-11-10T19:27:56.923Z,8.36
2022-11-10T19:30:44.488Z,8.32
2022-11-10T19:33:31.724Z,8.28
2022-11-10T19:36:20.209Z,8.26
2022-11-10T19:39:07.512Z,8.22
2022-11-10T19:41:53.960Z,8.19
2022-11-10T19:44:40.167Z,8.15
2022-11-10T19:47:28.166Z,8.12
2022-11-10T19:50:14.782Z,8.10
2022-11-10T19:53:01.159Z,8.07
2022-11-10T19:55:47.643Z,8.04
2022-11-10T19:58:37.201Z,8.03
2022-11-10T20:01:23.713Z,7.99
2022-11-10T20:04:12.532Z,7.97
2022-11-10T20:07:12.733Z,7.95
2022-11-10T20:10:00.282Z,7.92
2022-11-10T20:12:46.684Z,7.93
2022-11-10T20:15:33.104Z,7.91
2022-11-10T20:18:19.377Z,7.91
2022-11-10T20:21:08.985Z,7.88
2022-11-10T20:23:56.121Z,7.86
2022-11-10T20:26:42.681Z,7.82
2022-11-10T20:29:29.194Z,7.80
2022-11-10T20:32:15.447Z,7.75
2022-11-10T20:35:02.122Z,7.73
2022-11-10T20:37:49.849Z,7.70
2022-11-10T20:40:44.310Z,7.67
2022-11-10T20:43:31.055Z,7.64
2022-11-10T20:46:40.100Z,7.62
2022-11-10T20:49:25.958Z,7.62
2022-11-10T20:52:12.728Z,7.61
2022-11-10T20:55:01.432Z,7.59
2022-11-10T20:57:47.901Z,7.58
2022-11-10T21:00:34.451Z,7.57
2022-11-10T21:03:20.732Z,7.56
2022-11-10T21:06:07.995Z,7.55
2022-11-10T21:08:56.122Z,7.55
2022-11-10T21:12:01.496Z,7.54
2022-11-10T21:14:48.026Z,7.55
2022-11-10T21:17:34.621Z,7.54
2022-11-10T21:20:20.834Z,7.55
2022-11-10T21:23:07.299Z,7.54
2022-11-10T21:25:54.262Z,7.53
2022-11-10T21:28:42.132Z,7.52
2022-11-10T21:31:30.057Z,7.51
2022-11-10T21:34:16.297Z,7.50
2022-11-10T21:37:02.835Z,7.49
2022-11-10T21:39:49.861Z,7.48
2022-11-10T21:42:36.206Z,7.46
2022-11-10T21:45:23.979Z,7.44
2022-11-10T21:48:10.451Z,7.43
2022-11-10T21:51:00.605Z,7.42
2022-11-10T21:53:47.033Z,7.40
2022-11-10T21:56:33.684Z,7.37
2022-11-10T21:59:20.197Z,7.36
2022-11-10T22:02:10.134Z,7.33
2022-11-10T22:04:56.590Z,7.30
2022-11-10T22:07:43.048Z,7.28
2022-11-10T22:10:47.084Z,7.26
2022-11-10T22:14:05.188Z,7.23
2022-11-10T22:17:09.758Z,7.20
2022-11-10T22:19:57.685Z,7.19
2022-11-10T22:22:44.183Z,7.18
2022-11-10T22:25:30.462Z,7.16
2022-11-10T22:28:16.637Z,7.13
2022-11-10T22:31:04.086Z,7.14
2022-11-10T22:33:50.625Z,7.10
2022-11-10T22:36:38.608Z,7.08
2022-11-10T22:39:44.734Z,7.07
2022-11-10T22:42:49.122Z,7.08
2022-11-10T22:45:35.472Z,7.07
2022-11-10T22:48:28.525Z,7.05
2022-11-10T22:51:14.731Z,7.05
2022-11-10T22:54:03.033Z,7.03
2022-11-10T22:56:50.738Z,7.00
2022-11-10T22:59:37.003Z,6.98
2022-11-10T23:02:23.304Z,6.96
2022-11-10T23:05:09.846Z,6.94
2022-11-10T23:07:56.692Z,6.91
2022-11-10T23:10:44.403Z,6.88
2022-11-10T23:13:31.054Z,6.88
2022-11-10T23:16:20.115Z,6.87
2022-11-10T23:19:06.676Z,6.86
2022-11-10T23:21:53.192Z,6.85
2022-11-10T23:24:39.768Z,6.85
2022-11-10T23:27:27.622Z,6.82
2022-11-10T23:30:14.003Z,6.79
2022-11-10T23:33:00.256Z,6.76
2022-11-10T23:35:46.760Z,6.74
2022-11-10T23:38:34.382Z,6.70
2022-11-10T23:41:23.700Z,6.68
2022-11-10T23:44:11.954Z,6.65
2022-11-10T23:46:58.325Z,6.60
2022-11-10T23:49:44.789Z,6.55
2022-11-10T23:52:31.213Z,6.51
2022-11-10T23:55:17.834Z,6.48
2022-11-10T23:58:04.553Z,6.43
